sensor_id;sensor_type;location;lat;lon;timestamp;temperature;humidity
17827;DHT22;9038;48.208;16.308;2023-02-03T00:00:50;3.80;83.30
17827;DHT22;9038;48.208;16.308;2023-02-03T00:02:52;3.80;83.40
17827;DHT22;9038;48.208;16.308;2023-02-03T00:04:54;3.90;83.50
17827;DHT22;9038;48.208;16.308;2023-02-03T00:06:56;3.80;83.40
17827;DHT22;9038;48.208;16.308;2023-02-03T00:08:58;3.80;83.50
17827;DHT22;9038;48.208;16.308;2023-02-03T00:11:01;3.80;83.90
17827;DHT22;9038;48.208;16.308;2023-02-03T00:13:03;3.80;83.90
17827;DHT22;9038;48.208;16.308;2023-02-03T00:15:06;3.80;83.80
17827;DHT22;9038;48.208;16.308;2023-02-03T00:17:09;3.80;83.80
17827;DHT22;9038;48.208;16.308;2023-02-03T00:19:11;3.80;83.80
17827;DHT22;9038;48.208;16.308;2023-02-03T00:21:13;3.80;83.80
17827;DHT22;9038;48.208;16.308;2023-02-03T00:23:15;3.80;83.80
17827;DHT22;9038;48.208;16.308;2023-02-03T00:25:17;3.90;84.00
17827;DHT22;9038;48.208;16.308;2023-02-03T00:27:21;3.90;84.50
17827;DHT22;9038;48.208;16.308;2023-02-03T00:29:23;3.90;83.60
17827;DHT22;9038;48.208;16.308;2023-02-03T00:31:25;3.90;83.50
17827;DHT22;9038;48.208;16.308;2023-02-03T00:33:28;3.90;83.50
17827;DHT22;9038;48.208;16.308;2023-02-03T00:35:30;4.00;83.60
17827;DHT22;9038;48.208;16.308;2023-02-03T00:37:32;4.00;83.60
17827;DHT22;9038;48.208;16.308;2023-02-03T00:39:35;4.00;83.60
17827;DHT22;9038;48.208;16.308;2023-02-03T00:41:37;4.00;83.60
17827;DHT22;9038;48.208;16.308;2023-02-03T00:43:42;4.00;83.60
17827;DHT22;9038;48.208;16.308;2023-02-03T00:45:44;4.00;83.60
17827;DHT22;9038;48.208;16.308;2023-02-03T00:47:47;4.00;83.60
17827;DHT22;9038;48.208;16.308;2023-02-03T00:49:51;4.00;83.60
17827;DHT22;9038;48.208;16.308;2023-02-03T00:51:53;4.00;83.40
17827;DHT22;9038;48.208;16.308;2023-02-03T00:53:55;4.00;83.40
17827;DHT22;9038;48.208;16.308;2023-02-03T00:55:58;4.00;83.40
17827;DHT22;9038;48.208;16.308;2023-02-03T00:58:00;4.00;84.10
17827;DHT22;9038;48.208;16.308;2023-02-03T01:00:02;4.00;83.20
17827;DHT22;9038;48.208;16.308;2023-02-03T01:02:04;4.00;83.10
17827;DHT22;9038;48.208;16.308;2023-02-03T01:04:10;4.00;83.00
17827;DHT22;9038;48.208;16.308;2023-02-03T01:06:19;4.00;83.20
17827;DHT22;9038;48.208;16.308;2023-02-03T01:08:21;4.00;83.10
17827;DHT22;9038;48.208;16.308;2023-02-03T01:10:23;4.00;83.00
17827;DHT22;9038;48.208;16.308;2023-02-03T01:12:28;4.10;83.10
17827;DHT22;9038;48.208;16.308;2023-02-03T01:14:30;4.10;83.00
17827;DHT22;9038;48.208;16.308;2023-02-03T01:16:32;4.00;82.70
17827;DHT22;9038;48.208;16.308;2023-02-03T01:18:38;4.10;82.90
17827;DHT22;9038;48.208;16.308;2023-02-03T01:20:48;4.10;82.80
17827;DHT22;9038;48.208;16.308;2023-02-03T01:22:53;4.00;82.60
17827;DHT22;9038;48.208;16.308;2023-02-03T01:24:55;4.00;82.70
17827;DHT22;9038;48.208;16.308;2023-02-03T01:26:57;4.00;82.80
17827;DHT22;9038;48.208;16.308;2023-02-03T01:28:59;4.00;82.90
17827;DHT22;9038;48.208;16.308;2023-02-03T01:31:09;4.00;83.10
17827;DHT22;9038;48.208;16.308;2023-02-03T01:33:12;4.00;83.00
17827;DHT22;9038;48.208;16.308;2023-02-03T01:35:14;4.00;83.00
17827;DHT22;9038;48.208;16.308;2023-02-03T01:37:16;4.00;83.10
17827;DHT22;9038;48.208;16.308;2023-02-03T01:39:20;4.00;83.30
17827;DHT22;9038;48.208;16.308;2023-02-03T01:41:24;3.90;83.30
17827;DHT22;9038;48.208;16.308;2023-02-03T01:43:28;3.90;83.50
17827;DHT22;9038;48.208;16.308;2023-02-03T01:45:30;3.90;83.60
17827;DHT22;9038;48.208;16.308;2023-02-03T01:47:35;3.90;83.90
17827;DHT22;9038;48.208;16.308;2023-02-03T01:49:41;3.80;83.90
17827;DHT22;9038;48.208;16.308;2023-02-03T01:51:46;3.90;84.20
17827;DHT22;9038;48.208;16.308;2023-02-03T01:53:49;3.80;84.10
17827;DHT22;9038;48.208;16.308;2023-02-03T01:55:53;3.80;84.20
17827;DHT22;9038;48.208;16.308;2023-02-03T01:58:01;3.80;84.20
17827;DHT22;9038;48.208;16.308;2023-02-03T02:00:07;3.80;84.20
17827;DHT22;9038;48.208;16.308;2023-02-03T02:02:09;3.90;84.30
17827;DHT22;9038;48.208;16.308;2023-02-03T02:04:13;3.90;84.40
17827;DHT22;9038;48.208;16.308;2023-02-03T02:06:15;3.90;84.30
17827;DHT22;9038;48.208;16.308;2023-02-03T02:08:18;3.90;84.30
17827;DHT22;9038;48.208;16.308;2023-02-03T02:10:22;3.90;84.30
17827;DHT22;9038;48.208;16.308;2023-02-03T02:12:25;3.90;84.20
17827;DHT22;9038;48.208;16.308;2023-02-03T02:14:27;3.90;84.30
17827;DHT22;9038;48.208;16.308;2023-02-03T02:16:37;3.90;84.30
17827;DHT22;9038;48.208;16.308;2023-02-03T02:18:57;3.90;84.30
17827;DHT22;9038;48.208;16.308;2023-02-03T02:21:33;4.00;84.40
17827;DHT22;9038;48.208;16.308;2023-02-03T02:26:36;4.00;84.10
17827;DHT22;9038;48.208;16.308;2023-02-03T02:28:56;4.10;84.20
17827;DHT22;9038;48.208;16.308;2023-02-03T02:33:37;4.10;84.60
17827;DHT22;9038;48.208;16.308;2023-02-03T02:35:53;4.10;85.50
17827;DHT22;9038;48.208;16.308;2023-02-03T02:38:02;4.10;85.90
17827;DHT22;9038;48.208;16.308;2023-02-03T02:40:10;4.00;86.30
17827;DHT22;9038;48.208;16.308;2023-02-03T02:42:22;4.00;86.90
17827;DHT22;9038;48.208;16.308;2023-02-03T02:44:30;4.10;87.30
17827;DHT22;9038;48.208;16.308;2023-02-03T02:46:39;4.00;87.20
17827;DHT22;9038;48.208;16.308;2023-02-03T02:48:48;4.00;87.60
17827;DHT22;9038;48.208;16.308;2023-02-03T02:50:55;4.00;87.70
17827;DHT22;9038;48.208;16.308;2023-02-03T02:52:58;4.00;87.50
17827;DHT22;9038;48.208;16.308;2023-02-03T02:55:04;4.00;87.30
17827;DHT22;9038;48.208;16.308;2023-02-03T02:57:09;4.10;87.90
17827;DHT22;9038;48.208;16.308;2023-02-03T02:59:13;4.00;87.50
17827;DHT22;9038;48.208;16.308;2023-02-03T03:01:15;4.00;87.90
17827;DHT22;9038;48.208;16.308;2023-02-03T03:03:20;4.00;87.80
17827;DHT22;9038;48.208;16.308;2023-02-03T03:05:24;4.00;88.20
17827;DHT22;9038;48.208;16.308;2023-02-03T03:07:27;4.00;88.20
17827;DHT22;9038;48.208;16.308;2023-02-03T03:09:31;4.00;87.60
17827;DHT22;9038;48.208;16.308;2023-02-03T03:11:38;4.00;88.10
17827;DHT22;9038;48.208;16.308;2023-02-03T03:13:45;4.00;88.00
17827;DHT22;9038;48.208;16.308;2023-02-03T03:15:50;4.00;88.30
17827;DHT22;9038;48.208;16.308;2023-02-03T03:17:57;3.90;88.20
17827;DHT22;9038;48.208;16.308;2023-02-03T03:20:04;4.00;88.60
17827;DHT22;9038;48.208;16.308;2023-02-03T03:22:12;4.00;88.30
17827;DHT22;9038;48.208;16.308;2023-02-03T03:24:20;4.00;88.20
17827;DHT22;9038;48.208;16.308;2023-02-03T03:26:27;4.00;88.20
17827;DHT22;9038;48.208;16.308;2023-02-03T03:28:34;4.00;87.90
17827;DHT22;9038;48.208;16.308;2023-02-03T03:30:38;4.00;87.90
17827;DHT22;9038;48.208;16.308;2023-02-03T03:32:40;4.10;88.30
17827;DHT22;9038;48.208;16.308;2023-02-03T03:34:42;4.10;87.70
17827;DHT22;9038;48.208;16.308;2023-02-03T03:36:47;4.10;87.80
17827;DHT22;9038;48.208;16.308;2023-02-03T03:38:56;4.00;88.30
17827;DHT22;9038;48.208;16.308;2023-02-03T03:41:03;4.00;88.60
17827;DHT22;9038;48.208;16.308;2023-02-03T03:43:09;4.00;88.40
17827;DHT22;9038;48.208;16.308;2023-02-03T03:45:17;4.00;88.30
17827;DHT22;9038;48.208;16.308;2023-02-03T03:47:25;4.00;88.80
17827;DHT22;9038;48.208;16.308;2023-02-03T03:49:29;4.00;88.80
17827;DHT22;9038;48.208;16.308;2023-02-03T03:51:34;4.10;88.40
17827;DHT22;9038;48.208;16.308;2023-02-03T03:53:40;4.00;88.30
17827;DHT22;9038;48.208;16.308;2023-02-03T03:55:47;4.00;88.30
17827;DHT22;9038;48.208;16.308;2023-02-03T03:57:55;4.00;88.50
17827;DHT22;9038;48.208;16.308;2023-02-03T03:59:59;3.90;88.30
17827;DHT22;9038;48.208;16.308;2023-02-03T04:02:03;4.00;89.00
17827;DHT22;9038;48.208;16.308;2023-02-03T04:04:09;4.00;88.40
17827;DHT22;9038;48.208;16.308;2023-02-03T04:06:12;4.00;88.50
17827;DHT22;9038;48.208;16.308;2023-02-03T04:08:14;4.00;88.30
17827;DHT22;9038;48.208;16.308;2023-02-03T04:10:23;4.10;88.70
17827;DHT22;9038;48.208;16.308;2023-02-03T04:12:27;4.10;88.20
17827;DHT22;9038;48.208;16.308;2023-02-03T04:14:30;4.20;87.80
17827;DHT22;9038;48.208;16.308;2023-02-03T04:16:32;4.20;88.20
17827;DHT22;9038;48.208;16.308;2023-02-03T04:18:34;4.20;88.00
17827;DHT22;9038;48.208;16.308;2023-02-03T04:20:36;4.30;88.10
17827;DHT22;9038;48.208;16.308;2023-02-03T04:22:38;4.30;87.90
17827;DHT22;9038;48.208;16.308;2023-02-03T04:24:40;4.20;87.70
17827;DHT22;9038;48.208;16.308;2023-02-03T04:26:43;4.20;88.30
17827;DHT22;9038;48.208;16.308;2023-02-03T04:28:46;4.20;88.30
17827;DHT22;9038;48.208;16.308;2023-02-03T04:30:48;4.20;89.20
17827;DHT22;9038;48.208;16.308;2023-02-03T04:32:50;4.10;88.40
17827;DHT22;9038;48.208;16.308;2023-02-03T04:34:52;4.00;89.30
17827;DHT22;9038;48.208;16.308;2023-02-03T04:36:54;4.00;89.80
17827;DHT22;9038;48.208;16.308;2023-02-03T04:38:56;4.00;90.00
17827;DHT22;9038;48.208;16.308;2023-02-03T04:40:57;4.00;90.00
17827;DHT22;9038;48.208;16.308;2023-02-03T04:43:05;3.90;90.20
17827;DHT22;9038;48.208;16.308;2023-02-03T04:45:11;4.00;90.90
17827;DHT22;9038;48.208;16.308;2023-02-03T04:47:13;4.00;90.50
17827;DHT22;9038;48.208;16.308;2023-02-03T04:49:15;4.00;90.50
17827;DHT22;9038;48.208;16.308;2023-02-03T04:51:18;4.00;90.70
17827;DHT22;9038;48.208;16.308;2023-02-03T04:53:20;4.00;90.90
17827;DHT22;9038;48.208;16.308;2023-02-03T04:55:22;4.00;90.70
17827;DHT22;9038;48.208;16.308;2023-02-03T04:57:23;4.00;91.10
17827;DHT22;9038;48.208;16.308;2023-02-03T04:59:26;4.00;91.10
17827;DHT22;9038;48.208;16.308;2023-02-03T05:01:29;4.00;90.90
17827;DHT22;9038;48.208;16.308;2023-02-03T05:03:31;3.90;90.70
17827;DHT22;9038;48.208;16.308;2023-02-03T05:05:33;4.00;90.70
17827;DHT22;9038;48.208;16.308;2023-02-03T05:07:35;4.00;90.80
17827;DHT22;9038;48.208;16.308;2023-02-03T05:09:37;4.00;90.90
17827;DHT22;9038;48.208;16.308;2023-02-03T05:11:39;4.00;91.20
17827;DHT22;9038;48.208;16.308;2023-02-03T05:13:41;4.00;91.20
17827;DHT22;9038;48.208;16.308;2023-02-03T05:15:42;4.10;90.80
17827;DHT22;9038;48.208;16.308;2023-02-03T05:17:46;4.10;90.60
17827;DHT22;9038;48.208;16.308;2023-02-03T05:19:48;4.10;90.80
17827;DHT22;9038;48.208;16.308;2023-02-03T05:21:50;4.10;90.50
17827;DHT22;9038;48.208;16.308;2023-02-03T05:23:52;4.20;90.50
17827;DHT22;9038;48.208;16.308;2023-02-03T05:25:53;4.20;90.50
17827;DHT22;9038;48.208;16.308;2023-02-03T05:27:55;4.20;90.50
17827;DHT22;9038;48.208;16.308;2023-02-03T05:29:57;4.20;90.50
17827;DHT22;9038;48.208;16.308;2023-02-03T05:31:59;4.30;90.80
17827;DHT22;9038;48.208;16.308;2023-02-03T05:34:03;4.30;90.50
17827;DHT22;9038;48.208;16.308;2023-02-03T05:36:05;4.30;90.60
17827;DHT22;9038;48.208;16.308;2023-02-03T05:38:07;4.30;90.30
17827;DHT22;9038;48.208;16.308;2023-02-03T05:40:10;4.40;90.50
17827;DHT22;9038;48.208;16.308;2023-02-03T05:42:29;4.40;90.60
17827;DHT22;9038;48.208;16.308;2023-02-03T05:44:31;4.40;90.50
17827;DHT22;9038;48.208;16.308;2023-02-03T05:46:33;4.40;90.60
17827;DHT22;9038;48.208;16.308;2023-02-03T05:48:35;4.40;90.50
17827;DHT22;9038;48.208;16.308;2023-02-03T05:50:39;4.50;90.80
17827;DHT22;9038;48.208;16.308;2023-02-03T05:52:41;4.50;91.00
17827;DHT22;9038;48.208;16.308;2023-02-03T05:54:43;4.40;90.90
17827;DHT22;9038;48.208;16.308;2023-02-03T05:56:45;4.40;90.70
17827;DHT22;9038;48.208;16.308;2023-02-03T05:58:46;4.40;91.60
17827;DHT22;9038;48.208;16.308;2023-02-03T06:00:51;4.50;91.40
17827;DHT22;9038;48.208;16.308;2023-02-03T06:02:54;4.40;91.30
17827;DHT22;9038;48.208;16.308;2023-02-03T06:04:56;4.40;91.90
17827;DHT22;9038;48.208;16.308;2023-02-03T06:07:00;4.40;91.60
17827;DHT22;9038;48.208;16.308;2023-02-03T06:09:04;4.50;91.50
17827;DHT22;9038;48.208;16.308;2023-02-03T06:11:06;4.50;91.70
17827;DHT22;9038;48.208;16.308;2023-02-03T06:13:09;4.50;91.60
17827;DHT22;9038;48.208;16.308;2023-02-03T06:15:12;4.50;91.50
17827;DHT22;9038;48.208;16.308;2023-02-03T06:17:14;4.50;91.30
17827;DHT22;9038;48.208;16.308;2023-02-03T06:19:16;4.50;91.00
17827;DHT22;9038;48.208;16.308;2023-02-03T06:21:19;4.50;91.00
17827;DHT22;9038;48.208;16.308;2023-02-03T06:23:22;4.50;91.20
17827;DHT22;9038;48.208;16.308;2023-02-03T06:25:24;4.60;90.80
17827;DHT22;9038;48.208;16.308;2023-02-03T06:27:27;4.60;91.30
17827;DHT22;9038;48.208;16.308;2023-02-03T06:29:28;4.60;91.20
17827;DHT22;9038;48.208;16.308;2023-02-03T06:31:30;4.60;91.70
17827;DHT22;9038;48.208;16.308;2023-02-03T06:33:33;4.60;91.90
17827;DHT22;9038;48.208;16.308;2023-02-03T06:35:35;4.60;91.40
17827;DHT22;9038;48.208;16.308;2023-02-03T06:37:37;4.70;91.20
17827;DHT22;9038;48.208;16.308;2023-02-03T06:39:40;4.70;91.10
17827;DHT22;9038;48.208;16.308;2023-02-03T06:41:42;4.70;94.30
17827;DHT22;9038;48.208;16.308;2023-02-03T06:43:44;4.80;94.20
17827;DHT22;9038;48.208;16.308;2023-02-03T06:45:47;4.80;92.10
17827;DHT22;9038;48.208;16.308;2023-02-03T06:47:49;4.80;92.10
17827;DHT22;9038;48.208;16.308;2023-02-03T06:49:51;4.80;91.60
17827;DHT22;9038;48.208;16.308;2023-02-03T06:51:53;4.90;91.30
17827;DHT22;9038;48.208;16.308;2023-02-03T06:53:55;5.00;91.20
17827;DHT22;9038;48.208;16.308;2023-02-03T06:55:59;5.00;90.90
17827;DHT22;9038;48.208;16.308;2023-02-03T06:58:01;5.10;90.80
17827;DHT22;9038;48.208;16.308;2023-02-03T07:00:04;5.10;90.60
17827;DHT22;9038;48.208;16.308;2023-02-03T07:02:06;5.20;90.80
17827;DHT22;9038;48.208;16.308;2023-02-03T07:04:08;5.20;90.40
17827;DHT22;9038;48.208;16.308;2023-02-03T07:06:10;5.20;90.50
17827;DHT22;9038;48.208;16.308;2023-02-03T07:08:12;5.20;90.20
17827;DHT22;9038;48.208;16.308;2023-02-03T07:10:14;5.30;90.20
17827;DHT22;9038;48.208;16.308;2023-02-03T07:12:18;5.30;90.30
17827;DHT22;9038;48.208;16.308;2023-02-03T07:14:19;5.40;90.20
17827;DHT22;9038;48.208;16.308;2023-02-03T07:16:21;5.40;90.10
17827;DHT22;9038;48.208;16.308;2023-02-03T07:18:24;5.40;90.00
17827;DHT22;9038;48.208;16.308;2023-02-03T07:20:26;5.40;90.40
17827;DHT22;9038;48.208;16.308;2023-02-03T07:22:28;5.40;90.90
17827;DHT22;9038;48.208;16.308;2023-02-03T07:24:30;5.40;91.40
17827;DHT22;9038;48.208;16.308;2023-02-03T07:26:32;5.40;92.00
17827;DHT22;9038;48.208;16.308;2023-02-03T07:28:36;5.30;91.60
17827;DHT22;9038;48.208;16.308;2023-02-03T07:30:38;5.30;91.90
17827;DHT22;9038;48.208;16.308;2023-02-03T07:32:40;5.30;91.90
17827;DHT22;9038;48.208;16.308;2023-02-03T07:34:42;5.40;91.90
17827;DHT22;9038;48.208;16.308;2023-02-03T07:36:44;5.40;91.30
17827;DHT22;9038;48.208;16.308;2023-02-03T07:38:46;5.50;91.00
17827;DHT22;9038;48.208;16.308;2023-02-03T07:40:47;5.50;91.10
17827;DHT22;9038;48.208;16.308;2023-02-03T07:42:49;5.60;90.80
17827;DHT22;9038;48.208;16.308;2023-02-03T07:44:53;5.60;90.60
17827;DHT22;9038;48.208;16.308;2023-02-03T07:46:55;5.60;90.10
17827;DHT22;9038;48.208;16.308;2023-02-03T07:48:57;5.80;90.70
17827;DHT22;9038;48.208;16.308;2023-02-03T07:50:59;5.80;90.20
17827;DHT22;9038;48.208;16.308;2023-02-03T07:53:01;5.80;90.00
17827;DHT22;9038;48.208;16.308;2023-02-03T07:55:04;5.90;90.00
17827;DHT22;9038;48.208;16.308;2023-02-03T07:57:08;5.90;90.00
17827;DHT22;9038;48.208;16.308;2023-02-03T07:59:10;6.00;89.40
17827;DHT22;9038;48.208;16.308;2023-02-03T08:01:15;6.00;89.20
17827;DHT22;9038;48.208;16.308;2023-02-03T08:03:17;6.10;88.80
17827;DHT22;9038;48.208;16.308;2023-02-03T08:05:19;6.10;88.70
17827;DHT22;9038;48.208;16.308;2023-02-03T08:07:21;6.10;88.40
17827;DHT22;9038;48.208;16.308;2023-02-03T08:09:23;6.20;88.60
17827;DHT22;9038;48.208;16.308;2023-02-03T08:11:26;6.10;87.60
17827;DHT22;9038;48.208;16.308;2023-02-03T08:13:28;6.30;87.90
17827;DHT22;9038;48.208;16.308;2023-02-03T08:15:30;6.40;88.40
17827;DHT22;9038;48.208;16.308;2023-02-03T08:17:33;6.40;87.00
17827;DHT22;9038;48.208;16.308;2023-02-03T08:19:35;6.50;87.30
17827;DHT22;9038;48.208;16.308;2023-02-03T08:21:37;6.50;86.30
17827;DHT22;9038;48.208;16.308;2023-02-03T08:23:39;6.60;86.20
17827;DHT22;9038;48.208;16.308;2023-02-03T08:25:41;6.60;85.80
17827;DHT22;9038;48.208;16.308;2023-02-03T08:27:43;6.70;86.00
17827;DHT22;9038;48.208;16.308;2023-02-03T08:29:45;6.70;85.10
17827;DHT22;9038;48.208;16.308;2023-02-03T08:31:47;6.70;85.30
17827;DHT22;9038;48.208;16.308;2023-02-03T08:33:51;6.70;85.20
17827;DHT22;9038;48.208;16.308;2023-02-03T08:35:53;6.70;84.90
17827;DHT22;9038;48.208;16.308;2023-02-03T08:37:56;6.70;84.60
17827;DHT22;9038;48.208;16.308;2023-02-03T08:39:58;6.70;84.60
17827;DHT22;9038;48.208;16.308;2023-02-03T08:42:00;6.70;85.10
17827;DHT22;9038;48.208;16.308;2023-02-03T08:44:03;6.70;84.20
17827;DHT22;9038;48.208;16.308;2023-02-03T08:46:06;6.70;84.30
17827;DHT22;9038;48.208;16.308;2023-02-03T08:48:09;6.80;84.20
17827;DHT22;9038;48.208;16.308;2023-02-03T08:50:12;6.70;83.70
17827;DHT22;9038;48.208;16.308;2023-02-03T08:52:14;6.90;83.60
17827;DHT22;9038;48.208;16.308;2023-02-03T08:54:17;6.90;82.60
17827;DHT22;9038;48.208;16.308;2023-02-03T08:56:19;7.00;82.70
17827;DHT22;9038;48.208;16.308;2023-02-03T08:58:21;7.10;82.80
17827;DHT22;9038;48.208;16.308;2023-02-03T09:00:24;7.10;82.80
17827;DHT22;9038;48.208;16.308;2023-02-03T09:02:26;7.10;82.80
17827;DHT22;9038;48.208;16.308;2023-02-03T09:04:28;7.10;82.40
17827;DHT22;9038;48.208;16.308;2023-02-03T09:06:33;7.10;82.20
17827;DHT22;9038;48.208;16.308;2023-02-03T09:08:35;7.10;81.50
17827;DHT22;9038;48.208;16.308;2023-02-03T09:10:37;7.20;81.90
17827;DHT22;9038;48.208;16.308;2023-02-03T09:12:39;7.20;81.10
17827;DHT22;9038;48.208;16.308;2023-02-03T09:14:41;7.30;81.00
17827;DHT22;9038;48.208;16.308;2023-02-03T09:16:43;7.50;80.90
17827;DHT22;9038;48.208;16.308;2023-02-03T09:18:46;7.50;79.90
17827;DHT22;9038;48.208;16.308;2023-02-03T09:20:48;7.60;79.70
17827;DHT22;9038;48.208;16.308;2023-02-03T09:22:51;7.60;79.30
17827;DHT22;9038;48.208;16.308;2023-02-03T09:24:54;7.70;79.50
17827;DHT22;9038;48.208;16.308;2023-02-03T09:26:56;7.60;78.50
17827;DHT22;9038;48.208;16.308;2023-02-03T09:29:00;7.70;79.30
17827;DHT22;9038;48.208;16.308;2023-02-03T09:31:03;7.60;78.50
17827;DHT22;9038;48.208;16.308;2023-02-03T09:33:06;7.60;78.30
17827;DHT22;9038;48.208;16.308;2023-02-03T09:35:08;7.70;78.50
17827;DHT22;9038;48.208;16.308;2023-02-03T09:37:10;7.70;78.10
17827;DHT22;9038;48.208;16.308;2023-02-03T09:39:13;7.70;78.20
17827;DHT22;9038;48.208;16.308;2023-02-03T09:41:25;7.80;77.70
17827;DHT22;9038;48.208;16.308;2023-02-03T09:43:35;7.90;77.70
17827;DHT22;9038;48.208;16.308;2023-02-03T09:45:39;7.80;76.80
17827;DHT22;9038;48.208;16.308;2023-02-03T09:47:42;7.90;76.50
17827;DHT22;9038;48.208;16.308;2023-02-03T09:49:47;7.90;76.60
17827;DHT22;9038;48.208;16.308;2023-02-03T09:51:52;8.00;76.30
17827;DHT22;9038;48.208;16.308;2023-02-03T09:53:59;8.00;75.90
17827;DHT22;9038;48.208;16.308;2023-02-03T09:56:05;8.10;76.00
17827;DHT22;9038;48.208;16.308;2023-02-03T09:58:10;8.20;75.50
17827;DHT22;9038;48.208;16.308;2023-02-03T10:00:22;8.20;75.10
17827;DHT22;9038;48.208;16.308;2023-02-03T10:02:38;8.20;75.20
17827;DHT22;9038;48.208;16.308;2023-02-03T10:04:53;8.30;74.80
17827;DHT22;9038;48.208;16.308;2023-02-03T10:07:04;8.30;75.20
17827;DHT22;9038;48.208;16.308;2023-02-03T10:09:18;8.30;75.20
17827;DHT22;9038;48.208;16.308;2023-02-03T10:11:42;8.40;74.70
17827;DHT22;9038;48.208;16.308;2023-02-03T10:13:58;8.40;74.30
17827;DHT22;9038;48.208;16.308;2023-02-03T10:16:17;8.60;74.50
17827;DHT22;9038;48.208;16.308;2023-02-03T10:18:24;8.60;73.90
17827;DHT22;9038;48.208;16.308;2023-02-03T10:20:33;8.80;74.10
17827;DHT22;9038;48.208;16.308;2023-02-03T10:22:40;8.80;73.40
17827;DHT22;9038;48.208;16.308;2023-02-03T10:24:48;8.90;73.10
17827;DHT22;9038;48.208;16.308;2023-02-03T10:26:53;9.00;72.80
17827;DHT22;9038;48.208;16.308;2023-02-03T10:28:56;9.10;72.10
17827;DHT22;9038;48.208;16.308;2023-02-03T10:31:00;9.10;72.20
17827;DHT22;9038;48.208;16.308;2023-02-03T10:33:09;9.10;71.80
17827;DHT22;9038;48.208;16.308;2023-02-03T10:35:12;9.10;71.90
17827;DHT22;9038;48.208;16.308;2023-02-03T10:37:25;9.10;72.00
17827;DHT22;9038;48.208;16.308;2023-02-03T10:39:31;9.10;72.40
17827;DHT22;9038;48.208;16.308;2023-02-03T10:41:33;9.10;72.60
17827;DHT22;9038;48.208;16.308;2023-02-03T10:43:37;9.00;72.00
17827;DHT22;9038;48.208;16.308;2023-02-03T10:45:50;9.00;72.40
17827;DHT22;9038;48.208;16.308;2023-02-03T10:47:54;8.80;72.40
17827;DHT22;9038;48.208;16.308;2023-02-03T10:49:56;8.90;72.30
17827;DHT22;9038;48.208;16.308;2023-02-03T10:52:00;8.90;72.80
17827;DHT22;9038;48.208;16.308;2023-02-03T10:54:04;8.90;72.40
17827;DHT22;9038;48.208;16.308;2023-02-03T10:56:10;8.80;72.50
17827;DHT22;9038;48.208;16.308;2023-02-03T10:58:15;8.80;72.70
17827;DHT22;9038;48.208;16.308;2023-02-03T11:00:28;8.80;72.70
17827;DHT22;9038;48.208;16.308;2023-02-03T11:02:30;8.80;72.70
17827;DHT22;9038;48.208;16.308;2023-02-03T11:04:32;8.70;73.30
17827;DHT22;9038;48.208;16.308;2023-02-03T11:06:34;8.70;72.60
17827;DHT22;9038;48.208;16.308;2023-02-03T11:08:39;8.70;72.60
17827;DHT22;9038;48.208;16.308;2023-02-03T11:10:41;8.70;72.60
17827;DHT22;9038;48.208;16.308;2023-02-03T11:12:43;8.80;72.70
17827;DHT22;9038;48.208;16.308;2023-02-03T11:14:47;8.80;72.50
17827;DHT22;9038;48.208;16.308;2023-02-03T11:16:50;8.80;72.30
17827;DHT22;9038;48.208;16.308;2023-02-03T11:18:54;8.80;72.40
17827;DHT22;9038;48.208;16.308;2023-02-03T11:20:57;8.90;72.20
17827;DHT22;9038;48.208;16.308;2023-02-03T11:22:59;8.90;71.90
17827;DHT22;9038;48.208;16.308;2023-02-03T11:25:03;8.80;71.70
17827;DHT22;9038;48.208;16.308;2023-02-03T11:27:08;8.90;71.60
17827;DHT22;9038;48.208;16.308;2023-02-03T11:29:16;8.80;71.60
17827;DHT22;9038;48.208;16.308;2023-02-03T11:31:22;8.80;72.30
17827;DHT22;9038;48.208;16.308;2023-02-03T11:33:27;8.70;72.40
17827;DHT22;9038;48.208;16.308;2023-02-03T11:35:30;8.70;72.60
17827;DHT22;9038;48.208;16.308;2023-02-03T11:37:36;8.60;72.50
17827;DHT22;9038;48.208;16.308;2023-02-03T11:39:38;8.60;73.00
17827;DHT22;9038;48.208;16.308;2023-02-03T11:41:41;8.60;73.20
17827;DHT22;9038;48.208;16.308;2023-02-03T11:43:43;8.50;72.40
17827;DHT22;9038;48.208;16.308;2023-02-03T11:45:47;8.50;72.70
17827;DHT22;9038;48.208;16.308;2023-02-03T11:47:54;8.50;72.50
17827;DHT22;9038;48.208;16.308;2023-02-03T11:50:18;8.50;72.40
17827;DHT22;9038;48.208;16.308;2023-02-03T11:54:56;8.50;73.00
17827;DHT22;9038;48.208;16.308;2023-02-03T11:57:14;8.40;73.10
17827;DHT22;9038;48.208;16.308;2023-02-03T11:59:29;8.40;73.00
17827;DHT22;9038;48.208;16.308;2023-02-03T12:01:51;8.50;73.20
17827;DHT22;9038;48.208;16.308;2023-02-03T12:04:20;8.50;73.70
17827;DHT22;9038;48.208;16.308;2023-02-03T12:06:40;8.50;74.80
17827;DHT22;9038;48.208;16.308;2023-02-03T12:09:09;8.40;75.30
17827;DHT22;9038;48.208;16.308;2023-02-03T12:11:22;8.40;75.80
17827;DHT22;9038;48.208;16.308;2023-02-03T12:13:38;8.30;76.20
17827;DHT22;9038;48.208;16.308;2023-02-03T12:16:00;8.20;75.10
17827;DHT22;9038;48.208;16.308;2023-02-03T12:18:15;8.20;76.00
17827;DHT22;9038;48.208;16.308;2023-02-03T12:20:30;8.10;77.90
17827;DHT22;9038;48.208;16.308;2023-02-03T12:22:41;8.10;78.10
17827;DHT22;9038;48.208;16.308;2023-02-03T12:24:57;8.00;77.20
17827;DHT22;9038;48.208;16.308;2023-02-03T12:27:11;8.00;77.40
17827;DHT22;9038;48.208;16.308;2023-02-03T12:29:19;8.00;76.20
17827;DHT22;9038;48.208;16.308;2023-02-03T12:31:29;8.00;75.70
17827;DHT22;9038;48.208;16.308;2023-02-03T12:33:38;8.00;75.80
17827;DHT22;9038;48.208;16.308;2023-02-03T12:35:46;8.00;74.90
17827;DHT22;9038;48.208;16.308;2023-02-03T12:37:57;8.00;74.60
17827;DHT22;9038;48.208;16.308;2023-02-03T12:40:02;8.10;73.70
17827;DHT22;9038;48.208;16.308;2023-02-03T12:42:11;8.10;74.30
17827;DHT22;9038;48.208;16.308;2023-02-03T12:44:17;8.10;73.90
17827;DHT22;9038;48.208;16.308;2023-02-03T12:46:23;8.10;74.50
17827;DHT22;9038;48.208;16.308;2023-02-03T12:48:31;8.20;75.00
17827;DHT22;9038;48.208;16.308;2023-02-03T12:50:38;8.10;75.00
17827;DHT22;9038;48.208;16.308;2023-02-03T12:52:44;8.10;75.00
17827;DHT22;9038;48.208;16.308;2023-02-03T12:54:55;8.10;74.50
17827;DHT22;9038;48.208;16.308;2023-02-03T12:57:09;8.10;75.00
17827;DHT22;9038;48.208;16.308;2023-02-03T12:59:17;8.10;75.00
17827;DHT22;9038;48.208;16.308;2023-02-03T13:01:23;8.10;75.40
17827;DHT22;9038;48.208;16.308;2023-02-03T13:03:29;8.20;75.10
17827;DHT22;9038;48.208;16.308;2023-02-03T13:05:41;8.10;75.00
17827;DHT22;9038;48.208;16.308;2023-02-03T13:07:47;8.10;76.00
17827;DHT22;9038;48.208;16.308;2023-02-03T13:09:54;8.10;76.20
17827;DHT22;9038;48.208;16.308;2023-02-03T13:11:59;8.10;75.90
17827;DHT22;9038;48.208;16.308;2023-02-03T13:14:08;8.10;75.00
17827;DHT22;9038;48.208;16.308;2023-02-03T13:16:14;8.10;75.00
17827;DHT22;9038;48.208;16.308;2023-02-03T13:18:23;8.10;75.00
17827;DHT22;9038;48.208;16.308;2023-02-03T13:20:27;8.20;74.40
17827;DHT22;9038;48.208;16.308;2023-02-03T13:22:31;8.10;74.00
17827;DHT22;9038;48.208;16.308;2023-02-03T13:24:33;8.20;75.00
17827;DHT22;9038;48.208;16.308;2023-02-03T13:27:05;8.20;74.40
17827;DHT22;9038;48.208;16.308;2023-02-03T13:29:25;8.20;74.10